Time;durP1;ratioP1;P1;durP2;ratioP2;P2;SDS_P1;SDS_P2;PMS_P1;PMS_P2;Temp;Humidity;BMP_temperature;BMP_pressure;BME280_temperature;BME280_humidity;BME280_pressure;Samples;Min_cycle;Max_cycle;Signal;HPM_P1;HPM_P2
2023/09/20 09:28:55;;;;;;;;;;;;;;;;;;5098524;27;19949;-54
2023/09/20 09:31:21;;;;;;;;;;;;;;;;;;5082550;28;19912;-55
2023/09/20 09:33:47;;;;;;;;;;;;;;;;;;5083992;28;19916;-55
2023/09/20 09:36:13;;;;;;;;;;;;;;;;;;5086665;28;19923;-55
2023/09/20 09:38:39;;;;;;;;;;;;;;;;;;5085143;28;19927;-55
2023/09/20 09:41:07;;;;;;;;;;;;;;;;;;5083133;28;19919;-54
2023/09/20 09:43:33;;;;;;;;;;;;;;;;;;5082880;28;20348;-54
2023/09/20 09:45:59;;;;;;;;;;;;;;;;;;5084568;28;20031;-56
2023/09/20 09:48:27;;;;;;;;;;;;;;;;;;5086171;28;19924;-54
2023/09/20 09:50:53;;;;;;;;;;;;;;;;;;5083435;28;19925;-55
2023/09/20 09:53:20;;;;;;;;;;;;;;;;;;5085381;28;20337;-55
2023/09/20 09:55:46;;;;;;;;;;;;;;;;;;5086491;28;20401;-54
2023/09/20 09:58:12;;;;;;;;;;;;;;;;;;5082743;28;19917;-54
2023/09/20 10:00:39;;;;;;;;;;;;;;;;;;5082755;28;19944;-56
2023/09/20 10:03:06;;;;;;;;;;;;;;;;;;5082313;28;19916;-54
2023/09/20 10:05:32;;;;;;;;;;;;;;;;;;5087503;28;19934;-54
2023/09/20 10:08:01;;;;;;;;;;;;;;;;;;5084436;28;19921;-54
2023/09/20 10:10:27;;;;;;;;;;;;;;;;;;5082958;28;19913;-56
2023/09/20 10:12:53;;;;;;;;;;;;;;;;;;5084083;28;19924;-54
2023/09/20 10:15:19;;;;;;;;;;;;;;;;;;5081874;28;19909;-56
2023/09/20 10:17:45;;;;;;;;;;;;;;;;;;5086718;28;20382;-55
2023/09/20 10:20:15;;;;;;;;;;;;;;;;;;5087364;28;19908;-54
2023/09/20 10:22:43;;;;;;;;;;;;;;;;;;5078970;28;19958;-54
2023/09/20 10:25:09;;;;;;;;;;;;;;;;;;5076135;28;20279;-56
2023/09/20 10:27:35;;;;;;;;;;;;;;;;;;5084057;28;19928;-54
2023/09/20 10:30:01;;;;;;;;;;;;;;;;;;5084549;28;19917;-54
2023/09/20 10:32:27;;;;;;;;;;;;;;;;;;5088042;28;20314;-56
2023/09/20 10:34:53;;;;;;;;;;;;;;;;;;5081645;28;19920;-54
2023/09/20 10:37:19;;;;;;;;;;;;;;;;;;5085183;28;19912;-54
2023/09/20 10:39:46;;;;;;;;;;;;;;;;;;5072086;28;19913;-56
2023/09/20 10:42:14;;;;;;;;;;;;;;;;;;5071401;28;19912;-55
2023/09/20 10:44:43;;;;;;;;;;;;;;;;;;5069592;28;20288;-56
2023/09/20 10:47:09;;;;;;;;;;;;;;;;;;5071241;28;19938;-56
2023/09/20 10:49:35;;;;;;;;;;;;;;;;;;5070826;28;20006;-56
2023/09/20 10:52:03;;;;;;;;;;;;;;;;;;5072432;28;20015;-56
2023/09/20 10:54:36;;;;;;;;;;;;;;;;;;5066425;28;19921;-56
2023/09/20 10:57:07;;;;;;;;;;;;;;;;;;5071133;28;20003;-56
2023/09/20 10:59:34;;;;;;;;;;;;;;;;;;5072058;28;19916;-56
2023/09/20 11:02:00;;;;;;;;;;;;;;;;;;5071891;28;20003;-56
2023/09/20 11:04:26;;;;;;;;;;;;;;;;;;5071133;28;20003;-56
2023/09/20 11:06:55;;;;;;;;;;;;;;;;;;5066344;28;20010;-56
2023/09/20 11:09:22;;;;;;;;;;;;;;;;;;5066737;28;20031;-56
2023/09/20 11:11:48;;;;;;;;;;;;;;;;;;5070071;28;19913;-56
2023/09/20 11:14:14;;;;;;;;;;;;;;;;;;5068477;28;20253;-56
2023/09/20 11:16:41;;;;;;;;;;;;;;;;;;5072780;28;19923;-56
2023/09/20 11:19:07;;;;;;;;;;;;;;;;;;5071121;28;19931;-56
2023/09/20 11:21:33;;;;;;;;;;;;;;;;;;5072104;28;19916;-56
2023/09/20 11:23:59;;;;;;;;;;;;;;;;;;5070547;28;19912;-56
2023/09/20 11:26:25;;;;;;;;;;;;;;;;;;5069166;28;19912;-56
2023/09/20 11:28:52;;;;;;;;;;;;;;;;;;5070873;28;19925;-56
2023/09/20 11:31:18;;;;;;;;;;;;;;;;;;5072658;28;19924;-56
2023/09/20 11:33:44;;;;;;;;;;;;;;;;;;5071026;28;19909;-56
2023/09/20 11:36:10;;;;;;;;;;;;;;;;;;5070965;28;19913;-56
2023/09/20 11:38:40;;;;;;;;;;;;;;;;;;5071602;28;19939;-56
2023/09/20 11:41:09;;;;;;;;;;;;;;;;;;5070454;28;19916;-56
2023/09/20 11:43:35;;;;;;;;;;;;;;;;;;5066156;28;19913;-56
2023/09/20 11:46:01;;;;;;;;;;;;;;;;;;5071311;28;19912;-56
2023/09/20 11:48:27;;;;;;;;;;;;;;;;;;5066246;28;19916;-57
2023/09/20 11:50:53;;;;;;;;;;;;;;;;;;5068408;28;20015;-57
2023/09/20 11:53:19;;;;;;;;;;;;;;;;;;5070963;28;20363;-58
2023/09/20 11:55:45;;;;;;;;;;;;;;;;;;5063298;28;19913;-58
2023/09/20 11:58:14;;;;;;;;;;;;;;;;;;5070430;28;19917;-58
2023/09/20 12:00:39;;;;;;;;;;;;;;;;;;5068901;28;19921;-58
2023/09/20 12:03:05;;;;;;;;;;;;;;;;;;5066790;28;19947;-57
2023/09/20 12:05:31;;;;;;;;;;;;;;;;;;5071531;28;19952;-58
2023/09/20 12:07:58;;;;;;;;;;;;;;;;;;5070106;28;19970;-58
2023/09/20 12:10:24;;;;;;;;;;;;;;;;;;5068297;28;19916;-58
2023/09/20 12:12:51;;;;;;;;;;;;;;;;;;5066143;28;20011;-56
2023/09/20 12:15:17;;;;;;;;;;;;;;;;;;5065309;28;19919;-58
2023/09/20 12:17:43;;;;;;;;;;;;;;;;;;5069880;28;19917;-58
2023/09/20 12:20:11;;;;;;;;;;;;;;;;;;5069577;28;20368;-58
2023/09/20 12:22:38;;;;;;;;;;;;;;;;;;5064986;28;19999;-58
2023/09/20 12:25:06;;;;;;;;;;;;;;;;;;5066838;28;19916;-58
2023/09/20 12:27:32;;;;;;;;;;;;;;;;;;5067252;28;19928;-57
2023/09/20 12:29:59;;;;;;;;;;;;;;;;;;5070837;28;20376;-58
2023/09/20 12:32:25;;;;;;;;;;;;;;;;;;5067721;28;20003;-58
2023/09/20 12:34:51;;;;;;;;;;;;;;;;;;5069354;28;19988;-56
2023/09/20 12:37:19;;;;;;;;;;;;;;;;;;5070703;28;19912;-56
2023/09/20 12:39:46;;;;;;;;;;;;;;;;;;5067575;28;20410;-56
2023/09/20 12:42:13;;;;;;;;;;;;;;;;;;5066295;28;20045;-55
2023/09/20 12:44:38;;;;;;;;;;;;;;;;;;5068711;28;19919;-56
2023/09/20 12:47:07;;;;;;;;;;;;;;;;;;5069183;28;19920;-56
2023/09/20 12:49:32;;;;;;;;;;;;;;;;;;5068175;28;20600;-56
2023/09/20 12:52:02;;;;;;;;;;;;;;;;;;5067694;28;19920;-57
2023/09/20 12:54:28;;;;;;;;;;;;;;;;;;5066197;28;20360;-56
2023/09/20 12:56:55;;;;;;;;;;;;;;;;;;5068480;28;19973;-56
2023/09/20 12:59:26;;;;;;;;;;;;;;;;;;5065936;28;19912;-53
2023/09/20 13:01:52;;;;;;;;;;;;;;;;;;5069213;28;20637;-54
2023/09/20 13:04:18;;;;;;;;;;;;;;;;;;5069429;28;19999;-53
2023/09/20 13:06:44;;;;;;;;;;;;;;;;;;5068517;28;19912;-54
2023/09/20 13:09:14;;;;;;;;;;;;;;;;;;5067361;28;19978;-52
2023/09/20 13:11:41;;;;;;;;;;;;;;;;;;5066158;28;19920;-53
2023/09/20 13:14:06;;;;;;;;;;;;;;;;;;5067318;28;20007;-53
2023/09/20 13:16:34;;;;;;;;;;;;;;;;;;5067207;28;19999;-52
2023/09/20 13:19:00;;;;;;;;;;;;;;;;;;5066447;28;20264;-53
2023/09/20 13:21:26;;;;;;;;;;;;;;;;;;5070053;28;19913;-55
2023/09/20 13:23:54;;;;;;;;;;;;;;;;;;5069048;28;19935;-53
2023/09/20 13:26:20;;;;;;;;;;;;;;;;;;5065034;28;19947;-53
2023/09/20 13:28:46;;;;;;;;;;;;;;;;;;5065569;28;20017;-53
2023/09/20 13:31:13;;;;;;;;;;;;;;;;;;5067246;28;19947;-52
2023/09/20 13:33:39;;;;;;;;;;;;;;;;;;5066420;28;20331;-53
2023/09/20 13:36:05;;;;;;;;;;;;;;;;;;5068282;28;19963;-52
2023/09/20 13:38:31;;;;;;;;;;;;;;;;;;5069943;28;19923;-53
2023/09/20 13:40:57;;;;;;;;;;;;;;;;;;5066835;28;19912;-52
2023/09/20 13:43:22;;;;;;;;;;;;;;;;;;5065830;28;19955;-52
2023/09/20 13:45:48;;;;;;;;;;;;;;;;;;5067142;28;19916;-54
2023/09/20 13:48:14;;;;;;;;;;;;;;;;;;5069004;28;20050;-53
2023/09/20 13:50:43;;;;;;;;;;;;;;;;;;5066578;28;20386;-53
2023/09/20 13:53:09;;;;;;;;;;;;;;;;;;5068075;28;19921;-53
2023/09/20 13:55:35;;;;;;;;;;;;;;;;;;5066366;28;19939;-53
2023/09/20 13:58:01;;;;;;;;;;;;;;;;;;5066579;28;20280;-53
2023/09/20 14:00:28;;;;;;;;;;;;;;;;;;5066353;28;19919;-53
2023/09/20 14:02:54;;;;;;;;;;;;;;;;;;5065428;28;19938;-52
2023/09/20 14:05:21;;;;;;;;;;;;;;;;;;5066147;28;20423;-54
2023/09/20 14:07:47;;;;;;;;;;;;;;;;;;5068815;28;20379;-53
2023/09/20 14:10:13;;;;;;;;;;;;;;;;;;5069789;28;19962;-53
2023/09/20 14:12:41;;;;;;;;;;;;;;;;;;5067755;28;20302;-52
2023/09/20 14:15:06;;;;;;;;;;;;;;;;;;5069166;28;20302;-53
2023/09/20 14:17:32;;;;;;;;;;;;;;;;;;5065730;28;19916;-54
2023/09/20 14:20:05;;;;;;;;;;;;;;;;;;5070312;28;19919;-52
2023/09/20 14:22:31;;;;;;;;;;;;;;;;;;5073047;28;19947;-52
2023/09/20 14:24:57;;;;;;;;;;;;;;;;;;5068408;28;19962;-53
2023/09/20 14:27:23;;;;;;;;;;;;;;;;;;5066750;28;20376;-52
2023/09/20 14:29:49;;;;;;;;;;;;;;;;;;5072447;28;19939;-52
2023/09/20 14:32:15;;;;;;;;;;;;;;;;;;5071036;28;20378;-53
2023/09/20 14:34:41;;;;;;;;;;;;;;;;;;5073054;28;20355;-52
2023/09/20 14:37:07;;;;;;;;;;;;;;;;;;5067964;28;19924;-52
2023/09/20 14:39:33;;;;;;;;;;;;;;;;;;5071073;28;20376;-52
2023/09/20 14:41:58;;;;;;;;;;;;;;;;;;5072230;28;19912;-52
2023/09/20 14:44:25;;;;;;;;;;;;;;;;;;5073022;28;20473;-54
2023/09/20 14:46:50;;;;;;;;;;;;;;;;;;5072237;28;19908;-53
2023/09/20 14:49:16;;;;;;;;;;;;;;;;;;5069163;28;19909;-52
2023/09/20 14:51:42;;;;;;;;;;;;;;;;;;5066207;28;20553;-52
2023/09/20 14:54:08;;;;;;;;;;;;;;;;;;5068530;28;19916;-53
2023/09/20 14:56:34;;;;;;;;;;;;;;;;;;5067067;28;20299;-52
2023/09/20 14:59:00;;;;;;;;;;;;;;;;;;5070082;28;19912;-52
2023/09/20 15:01:26;;;;;;;;;;;;;;;;;;5072284;28;20324;-53
2023/09/20 15:03:52;;;;;;;;;;;;;;;;;;5071820;28;19912;-52
2023/09/20 15:06:18;;;;;;;;;;;;;;;;;;5063452;28;19962;-52
2023/09/20 15:08:45;;;;;;;;;;;;;;;;;;5066833;28;20300;-52
2023/09/20 15:11:12;;;;;;;;;;;;;;;;;;5069748;28;19948;-54
2023/09/20 15:13:38;;;;;;;;;;;;;;;;;;5071133;28;19916;-53
2023/09/20 15:16:04;;;;;;;;;;;;;;;;;;5066860;28;20375;-52
2023/09/20 15:18:30;;;;;;;;;;;;;;;;;;5069334;28;19916;-57
2023/09/20 15:20:56;;;;;;;;;;;;;;;;;;5071364;28;19919;-56
2023/09/20 15:23:22;;;;;;;;;;;;;;;;;;5068761;28;19927;-57
2023/09/20 15:25:48;;;;;;;;;;;;;;;;;;5063890;28;20442;-56
2023/09/20 15:28:14;;;;;;;;;;;;;;;;;;5070310;28;19932;-56
2023/09/20 15:30:40;;;;;;;;;;;;;;;;;;5071321;28;19985;-56
2023/09/20 15:33:09;;;;;;;;;;;;;;;;;;5068776;28;19913;-56
2023/09/20 15:35:34;;;;;;;;;;;;;;;;;;5071060;28;19927;-56
2023/09/20 15:38:01;;;;;;;;;;;;;;;;;;5067585;28;19913;-56
2023/09/20 15:40:28;;;;;;;;;;;;;;;;;;5071143;28;19912;-56
2023/09/20 15:42:55;;;;;;;;;;;;;;;;;;5067191;28;19921;-57
2023/09/20 15:45:21;;;;;;;;;;;;;;;;;;5069003;28;19958;-55
2023/09/20 15:47:47;;;;;;;;;;;;;;;;;;5071609;28;20260;-53
2023/09/20 15:50:13;;;;;;;;;;;;;;;;;;5066276;28;19917;-52
2023/09/20 15:52:40;;;;;;;;;;;;;;;;;;5071264;28;20399;-52
2023/09/20 15:55:06;;;;;;;;;;;;;;;;;;5065470;28;19916;-52
2023/09/20 15:57:34;;;;;;;;;;;;;;;;;;5066973;28;20274;-52
2023/09/20 16:00:00;;;;;;;;;;;;;;;;;;5064849;28;20015;-52
2023/09/20 16:02:28;;;;;;;;;;;;;;;;;;5068279;28;20011;-53
2023/09/20 16:04:54;;;;;;;;;;;;;;;;;;5068383;28;20279;-56
2023/09/20 16:07:20;;;;;;;;;;;;;;;;;;5069626;28;19920;-53
2023/09/20 16:09:46;;;;;;;;;;;;;;;;;;5074688;28;19920;-53
2023/09/20 16:12:12;;;;;;;;;;;;;;;;;;5072519;28;20334;-53
2023/09/20 16:14:38;;;;;;;;;;;;;;;;;;5079465;28;19915;-53
2023/09/20 16:17:04;;;;;;;;;;;;;;;;;;5072522;28;19913;-52
2023/09/20 16:19:30;;;;;;;;;;;;;;;;;;5073515;28;19927;-53
2023/09/20 16:21:56;;;;;;;;;;;;;;;;;;5070169;28;20394;-53
2023/09/20 16:24:22;;;;;;;;;;;;;;;;;;5068286;28;19991;-52
2023/09/20 16:26:50;;;;;;;;;;;;;;;;;;5071169;28;20019;-53
2023/09/20 16:29:15;;;;;;;;;;;;;;;;;;5071098;28;19922;-56
2023/09/20 16:31:41;;;;;;;;;;;;;;;;;;5072325;28;19934;-56
2023/09/20 16:34:10;;;;;;;;;;;;;;;;;;5069761;28;19908;-56
2023/09/20 16:36:36;;;;;;;;;;;;;;;;;;5069385;28;19919;-56
2023/09/20 16:39:02;;;;;;;;;;;;;;;;;;5067441;28;19912;-56
2023/09/20 16:41:28;;;;;;;;;;;;;;;;;;5067278;28;19938;-56
2023/09/20 16:43:54;;;;;;;;;;;;;;;;;;5067560;28;19916;-56
2023/09/20 16:46:20;;;;;;;;;;;;;;;;;;5066697;28;19920;-56
2023/09/20 16:48:47;;;;;;;;;;;;;;;;;;5069203;28;19916;-57
2023/09/20 16:51:13;;;;;;;;;;;;;;;;;;5069454;28;20272;-55
2023/09/20 16:53:39;;;;;;;;;;;;;;;;;;5067897;28;19912;-56
2023/09/20 16:56:04;;;;;;;;;;;;;;;;;;5067071;28;20011;-56
2023/09/20 16:58:32;;;;;;;;;;;;;;;;;;5067198;28;19916;-56
2023/09/20 17:00:58;;;;;;;;;;;;;;;;;;5065760;28;19920;-55
2023/09/20 17:03:24;;;;;;;;;;;;;;;;;;5068701;28;19917;-56
2023/09/20 17:05:50;;;;;;;;;;;;;;;;;;5068623;28;20004;-56
2023/09/20 17:08:16;;;;;;;;;;;;;;;;;;5065921;28;19920;-55
2023/09/20 17:10:42;;;;;;;;;;;;;;;;;;5069818;28;19958;-56
2023/09/20 17:13:08;;;;;;;;;;;;;;;;;;5070935;28;19913;-56
2023/09/20 17:15:34;;;;;;;;;;;;;;;;;;5070061;28;20437;-57
2023/09/20 17:17:59;;;;;;;;;;;;;;;;;;5071485;28;19967;-56
2023/09/20 17:20:26;;;;;;;;;;;;;;;;;;5068876;28;20356;-57
2023/09/20 17:22:51;;;;;;;;;;;;;;;;;;5074695;28;20374;-57
2023/09/20 17:25:18;;;;;;;;;;;;;;;;;;5069794;28;19912;-56
2023/09/20 17:27:44;;;;;;;;;;;;;;;;;;5064040;28;20438;-55
2023/09/20 17:30:12;;;;;;;;;;;;;;;;;;5068694;28;19912;-56
2023/09/20 17:32:38;;;;;;;;;;;;;;;;;;5074901;28;19996;-56
2023/09/20 17:35:05;;;;;;;;;;;;;;;;;;5071834;28;19951;-55
2023/09/20 17:37:32;;;;;;;;;;;;;;;;;;5072139;28;20367;-56
2023/09/20 17:40:00;;;;;;;;;;;;;;;;;;5070932;28;19919;-55
2023/09/20 17:42:26;;;;;;;;;;;;;;;;;;5073740;28;19931;-55
2023/09/20 17:44:53;;;;;;;;;;;;;;;;;;5073374;28;20370;-56
2023/09/20 17:47:19;;;;;;;;;;;;;;;;;;5072289;28;20550;-56
2023/09/20 17:49:45;;;;;;;;;;;;;;;;;;5076640;28;19944;-56
2023/09/20 17:52:11;;;;;;;;;;;;;;;;;;5072489;28;19933;-56
2023/09/20 17:54:37;;;;;;;;;;;;;;;;;;5076001;28;20721;-56
2023/09/20 17:57:03;;;;;;;;;;;;;;;;;;5076623;28;19916;-54
2023/09/20 17:59:29;;;;;;;;;;;;;;;;;;5073421;28;20295;-56
2023/09/20 18:01:57;;;;;;;;;;;;;;;;;;5075635;28;19912;-56
2023/09/20 18:04:23;;;;;;;;;;;;;;;;;;5075183;28;19913;-56
2023/09/20 18:06:49;;;;;;;;;;;;;;;;;;5075657;28;19916;-56
2023/09/20 18:09:14;;;;;;;;;;;;;;;;;;5069922;28;20372;-55
2023/09/20 18:11:45;;;;;;;;;;;;;;;;;;5069986;28;19916;-56
2023/09/20 18:14:11;;;;;;;;;;;;;;;;;;5072653;28;19915;-55
2023/09/20 18:16:38;;;;;;;;;;;;;;;;;;5074330;28;19912;-55
2023/09/20 18:19:04;;;;;;;;;;;;;;;;;;5078933;28;19912;-54
2023/09/20 18:21:31;;;;;;;;;;;;;;;;;;5073700;28;19909;-56
2023/09/20 18:24:00;;;;;;;;;;;;;;;;;;5076995;28;19912;-56
2023/09/20 18:26:26;;;;;;;;;;;;;;;;;;5069620;28;19920;-56
2023/09/20 18:28:52;;;;;;;;;;;;;;;;;;5072888;28;19967;-56
2023/09/20 18:31:18;;;;;;;;;;;;;;;;;;5073349;28;20387;-56
2023/09/20 18:33:46;;;;;;;;;;;;;;;;;;5074206;28;19922;-56
2023/09/20 18:36:12;;;;;;;;;;;;;;;;;;5071270;28;20403;-56
2023/09/20 18:38:38;;;;;;;;;;;;;;;;;;5068130;28;19947;-55
2023/09/20 18:41:06;;;;;;;;;;;;;;;;;;5071996;28;20350;-55
2023/09/20 18:43:32;;;;;;;;;;;;;;;;;;5075050;28;20367;-56
2023/09/20 18:45:58;;;;;;;;;;;;;;;;;;5070528;28;19923;-54
2023/09/20 18:48:24;;;;;;;;;;;;;;;;;;5074944;28;19921;-54
2023/09/20 18:50:50;;;;;;;;;;;;;;;;;;5075767;28;20264;-54
2023/09/20 18:53:16;;;;;;;;;;;;;;;;;;5072296;28;19997;-54
2023/09/20 18:55:42;;;;;;;;;;;;;;;;;;5071154;28;19927;-55
2023/09/20 18:58:09;;;;;;;;;;;;;;;;;;5076344;28;19920;-55
2023/09/20 19:00:35;;;;;;;;;;;;;;;;;;5071469;28;19985;-54
2023/09/20 19:03:03;;;;;;;;;;;;;;;;;;5070380;28;19916;-54
2023/09/20 19:05:29;;;;;;;;;;;;;;;;;;5073843;28;19913;-55
2023/09/20 19:07:55;;;;;;;;;;;;;;;;;;5080069;28;19920;-54
2023/09/20 19:10:21;;;;;;;;;;;;;;;;;;5067085;28;19931;-54
2023/09/20 19:12:47;;;;;;;;;;;;;;;;;;5072663;28;19913;-55
2023/09/20 19:15:15;;;;;;;;;;;;;;;;;;5070186;28;19919;-54
2023/09/20 19:17:41;;;;;;;;;;;;;;;;;;5075278;28;20335;-54
2023/09/20 19:20:17;;;;;;;;;;;;;;;;;;5069122;28;19912;-54
2023/09/20 19:22:43;;;;;;;;;;;;;;;;;;5071803;28;19913;-54
2023/09/20 19:25:10;;;;;;;;;;;;;;;;;;5071196;28;19916;-54
2023/09/20 19:27:36;;;;;;;;;;;;;;;;;;5070184;28;20284;-55
2023/09/20 19:30:05;;;;;;;;;;;;;;;;;;5070833;28;19912;-54
2023/09/20 19:32:31;;;;;;;;;;;;;;;;;;5072761;28;19912;-54
2023/09/20 19:34:59;;;;;;;;;;;;;;;;;;5075323;28;19962;-54
2023/09/20 19:37:25;;;;;;;;;;;;;;;;;;5071500;28;20336;-54
2023/09/20 19:39:51;;;;;;;;;;;;;;;;;;5071402;28;19990;-54
2023/09/20 19:42:17;;;;;;;;;;;;;;;;;;5066616;28;19963;-54
2023/09/20 19:44:43;;;;;;;;;;;;;;;;;;5071222;28;19918;-53
2023/09/20 19:47:10;;;;;;;;;;;;;;;;;;5071324;28;19912;-54
2023/09/20 19:49:36;;;;;;;;;;;;;;;;;;5069535;28;20246;-54
2023/09/20 19:52:02;;;;;;;;;;;;;;;;;;5075774;28;19915;-54
2023/09/20 19:54:27;;;;;;;;;;;;;;;;;;5069861;28;19913;-54
2023/09/20 19:56:53;;;;;;;;;;;;;;;;;;5072360;28;20015;-54
2023/09/20 19:59:19;;;;;;;;;;;;;;;;;;5070637;28;19913;-52
2023/09/20 20:01:45;;;;;;;;;;;;;;;;;;5070660;28;19913;-51
2023/09/20 20:04:11;;;;;;;;;;;;;;;;;;5063460;28;20404;-55
2023/09/20 20:06:37;;;;;;;;;;;;;;;;;;5066587;28;20398;-52
2023/09/20 20:09:04;;;;;;;;;;;;;;;;;;5067615;28;20168;-54
2023/09/20 20:11:30;;;;;;;;;;;;;;;;;;5066485;28;19912;-52
2023/09/20 20:13:56;;;;;;;;;;;;;;;;;;5066778;28;19916;-52
2023/09/20 20:16:26;;;;;;;;;;;;;;;;;;5069623;28;20385;-52
2023/09/20 20:18:52;;;;;;;;;;;;;;;;;;5068368;28;20003;-53
2023/09/20 20:21:18;;;;;;;;;;;;;;;;;;5070939;28;19996;-53
2023/09/20 20:23:45;;;;;;;;;;;;;;;;;;5066546;28;19967;-52
2023/09/20 20:26:11;;;;;;;;;;;;;;;;;;5067004;28;19912;-52
2023/09/20 20:28:37;;;;;;;;;;;;;;;;;;5066626;28;20478;-53
2023/09/20 20:31:03;;;;;;;;;;;;;;;;;;5070628;28;19966;-52
2023/09/20 20:33:29;;;;;;;;;;;;;;;;;;5068907;28;19912;-52
2023/09/20 20:35:55;;;;;;;;;;;;;;;;;;5069784;28;20375;-52
2023/09/20 20:38:21;;;;;;;;;;;;;;;;;;5070096;28;20421;-52
2023/09/20 20:40:47;;;;;;;;;;;;;;;;;;5069556;28;19912;-52
2023/09/20 20:43:13;;;;;;;;;;;;;;;;;;5070896;28;20386;-53
2023/09/20 20:45:39;;;;;;;;;;;;;;;;;;5067637;28;19951;-52
2023/09/20 20:48:06;;;;;;;;;;;;;;;;;;5071304;28;19948;-52
2023/09/20 20:50:33;;;;;;;;;;;;;;;;;;5073379;28;20025;-52
2023/09/20 20:52:58;;;;;;;;;;;;;;;;;;5067790;28;19919;-52
2023/09/20 20:55:25;;;;;;;;;;;;;;;;;;5070908;28;19912;-53
2023/09/20 20:57:51;;;;;;;;;;;;;;;;;;5070390;28;19993;-53
2023/09/20 21:02:50;;;;;;;;;;;;;;;;;;5069515;28;19959;-53
2023/09/20 21:05:18;;;;;;;;;;;;;;;;;;5070493;28;19919;-53
2023/09/20 21:07:44;;;;;;;;;;;;;;;;;;5069247;28;20288;-54
2023/09/20 21:10:10;;;;;;;;;;;;;;;;;;5061352;28;19925;-55
2023/09/20 21:12:40;;;;;;;;;;;;;;;;;;5067948;28;20003;-54
2023/09/20 21:15:06;;;;;;;;;;;;;;;;;;5061746;28;20122;-53
2023/09/20 21:17:32;;;;;;;;;;;;;;;;;;5065516;28;19920;-54
2023/09/20 21:19:58;;;;;;;;;;;;;;;;;;5061952;28;19917;-54
2023/09/20 21:22:25;;;;;;;;;;;;;;;;;;5064966;28;19912;-54
2023/09/20 21:24:51;;;;;;;;;;;;;;;;;;5063365;28;19995;-54
2023/09/20 21:27:17;;;;;;;;;;;;;;;;;;5064712;28;19924;-54
2023/09/20 21:29:44;;;;;;;;;;;;;;;;;;5064462;28;19912;-54
2023/09/20 21:32:10;;;;;;;;;;;;;;;;;;5060656;28;19912;-54
2023/09/20 21:34:36;;;;;;;;;;;;;;;;;;5068345;28;19909;-54
2023/09/20 21:37:02;;;;;;;;;;;;;;;;;;5064481;28;20475;-54
2023/09/20 21:39:28;;;;;;;;;;;;;;;;;;5064419;28;19912;-54
2023/09/20 21:41:53;;;;;;;;;;;;;;;;;;5064196;28;20384;-54
2023/09/20 21:44:19;;;;;;;;;;;;;;;;;;5064275;28;20150;-54
2023/09/20 21:46:45;;;;;;;;;;;;;;;;;;5064986;28;19952;-54
2023/09/20 21:49:11;;;;;;;;;;;;;;;;;;5061162;28;20163;-54
2023/09/20 21:51:37;;;;;;;;;;;;;;;;;;5065921;28;19916;-53
2023/09/20 21:54:03;;;;;;;;;;;;;;;;;;5066284;28;19909;-54
2023/09/20 21:56:29;;;;;;;;;;;;;;;;;;5063409;28;20011;-54
2023/09/20 21:58:55;;;;;;;;;;;;;;;;;;5066070;28;20043;-54
2023/09/20 22:01:21;;;;;;;;;;;;;;;;;;5064038;28;20376;-53
2023/09/20 22:03:47;;;;;;;;;;;;;;;;;;5065657;28;19962;-54
2023/09/20 22:06:13;;;;;;;;;;;;;;;;;;5065500;28;20352;-54
2023/09/20 22:08:41;;;;;;;;;;;;;;;;;;5065258;28;20395;-54
2023/09/20 22:11:13;;;;;;;;;;;;;;;;;;5062646;28;19924;-54
2023/09/20 22:13:39;;;;;;;;;;;;;;;;;;5062257;28;19912;-54
2023/09/20 22:16:05;;;;;;;;;;;;;;;;;;5065173;28;20390;-53
2023/09/20 22:18:31;;;;;;;;;;;;;;;;;;5065441;28;20376;-54
2023/09/20 22:21:00;;;;;;;;;;;;;;;;;;5066011;28;19912;-53
2023/09/20 22:23:28;;;;;;;;;;;;;;;;;;5061778;28;19913;-54
2023/09/20 22:25:58;;;;;;;;;;;;;;;;;;5063891;28;20117;-53
2023/09/20 22:28:24;;;;;;;;;;;;;;;;;;5064728;28;20019;-54
2023/09/20 22:30:50;;;;;;;;;;;;;;;;;;5065589;28;20011;-53
2023/09/20 22:33:16;;;;;;;;;;;;;;;;;;5064955;28;20322;-53
2023/09/20 22:35:42;;;;;;;;;;;;;;;;;;5067955;28;19916;-54
2023/09/20 22:38:09;;;;;;;;;;;;;;;;;;5069140;28;20151;-54
2023/09/20 22:40:35;;;;;;;;;;;;;;;;;;5068152;28;19923;-53
2023/09/20 22:43:03;;;;;;;;;;;;;;;;;;5068885;28;19908;-53
2023/09/20 22:45:37;;;;;;;;;;;;;;;;;;5068316;28;19919;-54
2023/09/20 22:48:09;;;;;;;;;;;;;;;;;;5068928;28;20432;-54
2023/09/20 22:50:38;;;;;;;;;;;;;;;;;;5068937;28;20295;-55
2023/09/20 22:53:13;;;;;;;;;;;;;;;;;;5068910;28;19923;-54
2023/09/20 22:55:39;;;;;;;;;;;;;;;;;;5064111;28;19912;-54
2023/09/20 22:58:07;;;;;;;;;;;;;;;;;;5068719;28;19965;-54
2023/09/20 23:00:41;;;;;;;;;;;;;;;;;;5064207;28;20066;-54
2023/09/20 23:03:07;;;;;;;;;;;;;;;;;;5066977;28;20335;-54
2023/09/20 23:05:35;;;;;;;;;;;;;;;;;;5068097;28;19912;-53
2023/09/20 23:08:03;;;;;;;;;;;;;;;;;;5068746;28;20287;-54
2023/09/20 23:10:29;;;;;;;;;;;;;;;;;;5068137;28;19935;-54
2023/09/20 23:12:57;;;;;;;;;;;;;;;;;;5071866;28;19913;-53
2023/09/20 23:15:25;;;;;;;;;;;;;;;;;;5069229;28;19908;-53
2023/09/20 23:17:56;;;;;;;;;;;;;;;;;;5071072;28;20349;-53
2023/09/20 23:20:31;;;;;;;;;;;;;;;;;;5067782;28;19912;-54
2023/09/20 23:22:57;;;;;;;;;;;;;;;;;;5071162;28;20375;-54
2023/09/20 23:25:23;;;;;;;;;;;;;;;;;;5068713;28;19908;-54
2023/09/20 23:28:00;;;;;;;;;;;;;;;;;;5070776;28;19932;-54
2023/09/20 23:30:26;;;;;;;;;;;;;;;;;;5066006;28;20324;-51
2023/09/20 23:32:52;;;;;;;;;;;;;;;;;;5070900;28;19935;-52
2023/09/20 23:35:19;;;;;;;;;;;;;;;;;;5070813;28;19939;-52
2023/09/20 23:37:48;;;;;;;;;;;;;;;;;;5071268;28;19909;-53
2023/09/20 23:40:17;;;;;;;;;;;;;;;;;;5063156;28;19920;-51
2023/09/20 23:42:43;;;;;;;;;;;;;;;;;;5070857;28;20322;-51
2023/09/20 23:45:09;;;;;;;;;;;;;;;;;;5070899;28;19917;-51
2023/09/20 23:47:36;;;;;;;;;;;;;;;;;;5070118;28;19917;-52
2023/09/20 23:50:02;;;;;;;;;;;;;;;;;;5070676;28;20278;-52
2023/09/20 23:52:32;;;;;;;;;;;;;;;;;;5070412;28;20279;-51
2023/09/20 23:54:57;;;;;;;;;;;;;;;;;;5068819;28;19955;-52
2023/09/20 23:57:23;;;;;;;;;;;;;;;;;;5070140;28;19943;-52
2023/09/20 23:59:51;;;;;;;;;;;;;;;;;;5070695;28;19915;-52
